createdAt,value
2022-09-21T00:01:19.801Z,71.58
2022-09-21T00:03:47.150Z,71.53
2022-09-21T00:06:18.707Z,71.48
2022-09-21T00:08:46.734Z,71.50
2022-09-21T00:11:20.578Z,71.35
2022-09-21T00:13:47.838Z,71.31
2022-09-21T00:16:16.637Z,71.04
2022-09-21T00:18:43.821Z,71.27
2022-09-21T00:21:13.134Z,71.27
2022-09-21T00:23:41.630Z,71.26
2022-09-21T00:26:14.668Z,71.25
2022-09-21T00:28:42.051Z,71.20
2022-09-21T00:31:12.389Z,71.34
2022-09-21T00:33:41.055Z,71.15
2022-09-21T00:36:17.067Z,71.00
2022-09-21T00:38:45.342Z,70.99
2022-09-21T00:41:13.664Z,70.87
2022-09-21T00:43:45.355Z,70.89
2022-09-21T00:46:24.968Z,70.69
2022-09-21T00:48:51.889Z,70.87
2022-09-21T00:51:18.839Z,71.00
2022-09-21T00:53:46.748Z,70.97
2022-09-21T00:56:15.668Z,71.02
2022-09-21T00:58:46.843Z,71.10
2022-09-21T01:01:16.628Z,71.14
2022-09-21T01:03:45.778Z,71.17
2022-09-21T01:06:14.481Z,71.42
2022-09-21T01:08:42.844Z,71.40
2022-09-21T01:11:32.783Z,71.49
2022-09-21T01:14:08.034Z,71.36
2022-09-21T01:16:40.878Z,71.32
2022-09-21T01:19:40.090Z,71.36
2022-09-21T01:22:22.134Z,71.45
2022-09-21T01:25:00.399Z,71.35
2022-09-21T01:27:51.914Z,71.38
2022-09-21T01:30:21.800Z,71.31
2022-09-21T01:33:09.770Z,71.61
2022-09-21T01:35:42.710Z,71.49
2022-09-21T01:38:15.694Z,71.67
2022-09-21T01:40:46.253Z,71.65
2022-09-21T01:43:20.183Z,71.87
2022-09-21T01:45:52.149Z,71.97
2022-09-21T01:48:22.404Z,72.06
2022-09-21T01:50:55.083Z,71.93
2022-09-21T01:53:39.898Z,71.99
2022-09-21T01:56:13.513Z,72.20
2022-09-21T01:58:45.332Z,72.43
2022-09-21T02:01:16.220Z,72.47
2022-09-21T02:03:49.950Z,72.64
2022-09-21T02:06:18.739Z,72.76
2022-09-21T02:08:46.666Z,72.75
2022-09-21T02:11:13.456Z,72.75
2022-09-21T02:13:45.647Z,72.77
2022-09-21T02:16:24.325Z,72.78
2022-09-21T02:19:10.939Z,73.06
2022-09-21T02:21:49.484Z,72.98
2022-09-21T02:24:38.554Z,73.13
2022-09-21T02:27:31.731Z,72.96
2022-09-21T02:30:11.807Z,72.85
2022-09-21T02:32:43.709Z,72.66
2022-09-21T02:35:19.779Z,72.53
2022-09-21T02:38:07.238Z,72.46
2022-09-21T02:41:03.589Z,72.13
2022-09-21T02:43:48.993Z,72.19
2022-09-21T02:46:24.356Z,72.13
2022-09-21T02:48:58.493Z,71.95
2022-09-21T02:51:35.074Z,72.01
2022-09-21T02:54:06.511Z,72.11
2022-09-21T02:56:33.906Z,72.21
2022-09-21T02:59:04.649Z,72.12
2022-09-21T03:01:33.185Z,72.21
2022-09-21T03:04:00.363Z,72.08
2022-09-21T03:06:27.141Z,71.96
2022-09-21T03:08:53.984Z,72.20
2022-09-21T03:11:20.875Z,72.27
2022-09-21T03:13:47.650Z,72.33
2022-09-21T03:16:17.303Z,72.23
2022-09-21T03:18:44.571Z,72.45
2022-09-21T03:21:12.348Z,72.64
2022-09-21T03:23:40.123Z,72.50
2022-09-21T03:26:07.239Z,72.81
2022-09-21T03:28:34.446Z,73.05
2022-09-21T03:31:01.293Z,73.17
2022-09-21T03:33:27.989Z,73.29
2022-09-21T03:35:54.811Z,73.32
2022-09-21T03:38:21.954Z,73.29
2022-09-21T03:40:49.820Z,73.32
2022-09-21T03:43:17.778Z,73.41
2022-09-21T03:45:44.762Z,73.50
2022-09-21T03:48:12.166Z,73.45
2022-09-21T03:50:39.058Z,73.47
2022-09-21T03:53:05.999Z,73.39
2022-09-21T03:55:33.323Z,73.43
2022-09-21T03:58:00.043Z,73.50
2022-09-21T04:00:27.212Z,73.54
2022-09-21T04:07:15.407Z,73.83
2022-09-21T04:09:42.183Z,73.88
2022-09-21T04:12:08.884Z,73.84
2022-09-21T04:14:35.557Z,74.14
2022-09-21T04:17:02.356Z,74.05
2022-09-21T04:19:29.099Z,74.36
2022-09-21T04:21:56.268Z,74.46
2022-09-21T04:24:23.491Z,74.47
2022-09-21T04:26:50.337Z,74.67
2022-09-21T04:29:17.110Z,74.61
2022-09-21T04:31:43.771Z,74.88
2022-09-21T04:34:13.689Z,74.87
2022-09-21T04:36:40.426Z,75.09
2022-09-21T04:39:07.183Z,75.29
2022-09-21T04:41:33.836Z,75.19
2022-09-21T04:44:01.344Z,75.06
2022-09-21T04:46:28.106Z,74.81
2022-09-21T04:48:55.091Z,74.59
2022-09-21T04:51:21.739Z,74.81
2022-09-21T04:53:48.444Z,74.67
2022-09-21T04:56:16.590Z,74.57
2022-09-21T04:58:43.843Z,74.72
2022-09-21T05:01:11.848Z,74.57
2022-09-21T05:03:38.955Z,74.68
2022-09-21T05:06:05.966Z,74.75
2022-09-21T05:08:51.572Z,74.89
2022-09-21T05:11:19.440Z,75.14
2022-09-21T05:13:47.279Z,75.15
2022-09-21T05:16:15.166Z,75.09
2022-09-21T05:18:47.287Z,75.00
2022-09-21T05:21:15.024Z,75.02
2022-09-21T05:23:42.053Z,75.18
2022-09-21T05:26:08.839Z,75.16
2022-09-21T05:28:40.279Z,75.68
2022-09-21T05:31:32.048Z,75.35
2022-09-21T05:34:11.372Z,75.13
2022-09-21T05:36:40.804Z,75.30
2022-09-21T05:39:08.201Z,75.25
2022-09-21T05:41:35.227Z,75.25
2022-09-21T05:44:02.301Z,75.31
2022-09-21T05:46:31.807Z,75.27
2022-09-21T05:49:06.030Z,75.44
2022-09-21T05:51:55.730Z,75.52
2022-09-21T05:54:26.495Z,75.55
2022-09-21T05:57:00.618Z,75.42
2022-09-21T05:59:48.731Z,75.45
2022-09-21T06:02:53.649Z,75.42
2022-09-21T06:05:21.007Z,75.03
2022-09-21T06:07:47.758Z,75.06
2022-09-21T06:10:16.060Z,74.94
2022-09-21T06:12:43.165Z,74.82
2022-09-21T06:15:13.919Z,74.90
2022-09-21T06:17:41.309Z,74.65
2022-09-21T06:20:08.470Z,74.65
2022-09-21T06:22:35.590Z,74.58
2022-09-21T06:25:02.293Z,74.71
2022-09-21T06:27:29.985Z,74.69
2022-09-21T06:29:59.522Z,74.54
2022-09-21T06:32:26.427Z,74.81
2022-09-21T06:34:53.144Z,74.52
2022-09-21T06:37:19.918Z,74.87
2022-09-21T06:39:46.567Z,74.74
2022-09-21T06:42:13.299Z,74.72
2022-09-21T06:44:40.023Z,74.74
2022-09-21T06:47:06.790Z,74.64
2022-09-21T06:49:33.511Z,74.42
2022-09-21T06:52:04.085Z,74.64
2022-09-21T06:54:30.942Z,74.28
2022-09-21T06:57:00.099Z,74.42
2022-09-21T06:59:26.978Z,74.45
2022-09-21T07:01:55.800Z,74.21
2022-09-21T07:04:25.325Z,74.21
2022-09-21T07:06:52.126Z,74.10
2022-09-21T07:12:07.179Z,73.99
2022-09-21T07:14:34.194Z,73.84
2022-09-21T07:17:00.896Z,73.68
2022-09-21T07:19:27.622Z,73.85
2022-09-21T07:21:55.551Z,73.67
2022-09-21T07:24:22.297Z,73.48
2022-09-21T07:26:50.671Z,73.50
2022-09-21T07:29:17.386Z,73.25
2022-09-21T07:31:48.556Z,73.07
2022-09-21T07:34:16.819Z,72.80
2022-09-21T07:36:43.770Z,72.62
2022-09-21T07:39:10.809Z,72.07
2022-09-21T07:41:37.822Z,71.64
2022-09-21T07:44:05.270Z,71.19
2022-09-21T07:46:32.216Z,70.98
2022-09-21T07:48:59.058Z,70.95
2022-09-21T07:51:26.609Z,70.64
2022-09-21T07:53:59.867Z,70.28
2022-09-21T07:56:26.676Z,69.96
2022-09-21T07:59:08.403Z,69.69
2022-09-21T08:01:40.351Z,69.47
2022-09-21T08:04:09.688Z,69.05
2022-09-21T08:06:40.320Z,68.90
2022-09-21T08:09:08.662Z,68.54
2022-09-21T08:11:37.485Z,68.36
2022-09-21T08:14:04.660Z,68.40
2022-09-21T08:16:32.223Z,68.18
2022-09-21T08:18:59.834Z,67.91
2022-09-21T08:21:26.740Z,67.72
2022-09-21T08:23:53.927Z,67.70
2022-09-21T08:26:20.792Z,67.70
2022-09-21T08:28:49.950Z,67.38
2022-09-21T08:31:19.762Z,67.38
2022-09-21T08:33:47.726Z,67.25
2022-09-21T08:36:14.599Z,67.17
2022-09-21T08:38:41.468Z,67.33
2022-09-21T08:41:20.624Z,67.24
2022-09-21T08:44:02.667Z,66.98
2022-09-21T08:46:32.885Z,66.72
2022-09-21T08:49:04.111Z,66.75
2022-09-21T08:51:36.703Z,66.58
2022-09-21T08:54:19.386Z,66.85
2022-09-21T08:57:04.529Z,67.11
2022-09-21T08:59:33.390Z,67.50
2022-09-21T09:02:06.032Z,67.22
2022-09-21T09:04:36.683Z,66.46
2022-09-21T09:07:15.482Z,64.93
2022-09-21T09:09:48.707Z,63.08
2022-09-21T09:12:53.941Z,61.54
2022-09-21T09:15:41.876Z,59.63
2022-09-21T09:18:42.759Z,58.31
2022-09-21T09:21:24.106Z,56.70
2022-09-21T09:24:03.114Z,55.03
2022-09-21T09:26:51.539Z,54.41
2022-09-21T09:29:52.571Z,53.78
2022-09-21T09:32:24.175Z,52.96
2022-09-21T09:35:22.924Z,52.84
2022-09-21T09:37:52.213Z,52.18
2022-09-21T09:40:34.421Z,53.03
2022-09-21T09:43:11.974Z,53.15
2022-09-21T09:46:01.693Z,53.65
2022-09-21T09:48:38.126Z,53.17
2022-09-21T09:51:11.470Z,52.32
2022-09-21T09:53:38.701Z,51.61
2022-09-21T09:56:05.665Z,51.73
2022-09-21T09:58:35.178Z,51.28
2022-09-21T10:01:03.613Z,50.15
2022-09-21T10:03:30.507Z,50.27
2022-09-21T10:05:57.272Z,50.49
2022-09-21T10:08:44.573Z,50.63
2022-09-21T10:11:13.978Z,51.41
2022-09-21T10:13:46.459Z,52.32
2022-09-21T10:16:17.780Z,53.27
2022-09-21T10:18:58.988Z,53.81
2022-09-21T10:21:41.299Z,54.35
2022-09-21T10:24:18.791Z,54.35
2022-09-21T10:27:02.311Z,54.86
2022-09-21T10:29:48.815Z,54.93
2022-09-21T10:32:18.038Z,55.96
2022-09-21T10:35:07.752Z,56.39
2022-09-21T10:37:43.224Z,56.94
2022-09-21T10:40:35.743Z,57.41
2022-09-21T10:43:02.503Z,57.84
2022-09-21T10:45:31.936Z,57.58
2022-09-21T10:47:59.963Z,57.18
2022-09-21T10:50:36.894Z,56.26
2022-09-21T10:53:09.799Z,56.25
2022-09-21T10:56:11.971Z,55.63
2022-09-21T10:59:13.873Z,56.37
2022-09-21T11:01:49.199Z,56.65
2022-09-21T11:04:29.968Z,57.29
2022-09-21T11:07:32.403Z,57.56
2022-09-21T11:10:18.140Z,57.63
2022-09-21T11:12:59.016Z,57.94
2022-09-21T11:15:49.472Z,58.15
2022-09-21T11:18:16.217Z,58.74
2022-09-21T11:20:47.468Z,58.77
2022-09-21T11:23:28.887Z,58.55
2022-09-21T11:26:19.960Z,58.75
2022-09-21T11:29:03.546Z,58.81
2022-09-21T11:31:33.038Z,58.57
2022-09-21T11:34:27.204Z,59.20
2022-09-21T11:37:23.125Z,59.00
2022-09-21T11:40:33.253Z,58.99
2022-09-21T11:43:08.296Z,58.94
2022-09-21T11:45:40.671Z,58.67
2022-09-21T11:48:36.512Z,58.67
2022-09-21T11:51:45.249Z,58.72
2022-09-21T11:54:35.094Z,59.00
2022-09-21T11:57:20.317Z,58.96
2022-09-21T12:00:16.031Z,59.47
2022-09-21T12:03:18.551Z,59.25
2022-09-21T12:05:54.133Z,59.08
2022-09-21T12:08:42.459Z,59.57
2022-09-21T12:11:25.486Z,59.30
2022-09-21T12:13:58.328Z,59.37
2022-09-21T12:16:50.927Z,59.03
2022-09-21T12:19:55.424Z,58.98
2022-09-21T12:22:33.816Z,59.09
2022-09-21T12:25:13.571Z,59.12
2022-09-21T12:27:47.531Z,59.64
2022-09-21T12:30:20.750Z,59.76
2022-09-21T12:33:03.655Z,60.28
2022-09-21T12:35:42.562Z,60.83
2022-09-21T12:41:31.534Z,61.33
2022-09-21T12:44:52.236Z,61.11
2022-09-21T12:47:47.062Z,61.12
2022-09-21T12:50:21.251Z,61.51
2022-09-21T12:52:50.106Z,61.56
2022-09-21T12:55:29.019Z,61.28
2022-09-21T12:58:17.449Z,61.44
2022-09-21T13:01:14.580Z,61.30
2022-09-21T13:04:16.311Z,61.52
2022-09-21T13:07:00.470Z,61.89
2022-09-21T13:09:28.798Z,62.08
2022-09-21T13:12:09.312Z,62.29
2022-09-21T13:14:43.569Z,62.25
2022-09-21T13:17:23.572Z,62.72
2022-09-21T13:20:05.198Z,62.83
2022-09-21T13:22:37.458Z,62.89
2022-09-21T13:25:18.785Z,63.11
2022-09-21T13:28:13.614Z,63.12
2022-09-21T13:30:45.653Z,62.67
2022-09-21T13:33:23.869Z,62.77
2022-09-21T13:36:02.376Z,62.74
2022-09-21T13:38:41.332Z,63.21
2022-09-21T13:41:21.188Z,62.81
2022-09-21T13:43:59.710Z,62.91
2022-09-21T13:46:32.241Z,63.02
2022-09-21T13:49:21.278Z,63.08
2022-09-21T13:52:03.252Z,63.07
2022-09-21T13:54:38.749Z,63.22
2022-09-21T13:57:36.954Z,63.04
2022-09-21T14:00:15.178Z,63.63
2022-09-21T14:02:50.091Z,63.40
2022-09-21T14:05:25.754Z,63.62
2022-09-21T14:08:03.120Z,63.75
2022-09-21T14:10:32.278Z,63.82
2022-09-21T14:13:01.179Z,63.78
2022-09-21T14:15:38.695Z,63.91
2022-09-21T14:18:11.931Z,63.87
2022-09-21T14:20:39.538Z,64.19
2022-09-21T14:23:22.695Z,64.23
2022-09-21T14:26:02.202Z,64.12
2022-09-21T14:28:43.359Z,64.50
2022-09-21T14:31:19.041Z,64.36
2022-09-21T14:33:54.402Z,63.79
2022-09-21T14:36:41.948Z,63.67
2022-09-21T14:39:40.667Z,63.82
2022-09-21T14:42:23.283Z,63.66
2022-09-21T14:44:51.761Z,63.63
2022-09-21T14:47:21.215Z,63.69
2022-09-21T14:49:57.567Z,62.88
2022-09-21T14:52:40.934Z,62.99
2022-09-21T14:55:31.579Z,62.90
2022-09-21T14:58:32.143Z,62.89
2022-09-21T15:01:21.486Z,62.56
2022-09-21T15:03:49.076Z,61.80
2022-09-21T15:06:41.371Z,61.19
2022-09-21T15:09:42.844Z,60.84
2022-09-21T15:12:26.075Z,60.73
2022-09-21T15:15:20.467Z,60.19
2022-09-21T15:17:59.822Z,60.38
2022-09-21T15:20:29.617Z,60.09
2022-09-21T15:22:58.520Z,60.50
2022-09-21T15:25:28.391Z,60.46
2022-09-21T15:27:55.690Z,60.41
2022-09-21T15:30:29.393Z,60.63
2022-09-21T15:32:59.786Z,60.41
2022-09-21T15:35:29.383Z,60.20
2022-09-21T15:38:00.138Z,60.63
2022-09-21T15:40:36.548Z,60.55
2022-09-21T15:43:21.021Z,60.29
2022-09-21T15:46:01.206Z,60.23
2022-09-21T15:48:39.143Z,60.35
2022-09-21T15:51:24.815Z,60.47
2022-09-21T15:53:56.734Z,60.26
2022-09-21T15:56:25.872Z,60.45
2022-09-21T15:59:08.871Z,61.08
2022-09-21T16:01:44.218Z,60.64
2022-09-21T16:04:19.879Z,60.54
2022-09-21T16:07:08.185Z,60.72
2022-09-21T16:09:46.222Z,60.56
2022-09-21T16:12:43.138Z,60.49
2022-09-21T16:15:25.585Z,60.28
2022-09-21T16:18:02.971Z,59.98
2022-09-21T16:20:45.918Z,59.91
2022-09-21T16:23:15.918Z,59.57
2022-09-21T16:25:43.518Z,59.33
2022-09-21T16:28:16.471Z,59.49
2022-09-21T16:30:55.182Z,59.34
2022-09-21T16:33:56.981Z,59.09
2022-09-21T16:36:26.449Z,58.88
2022-09-21T16:38:53.708Z,58.91
2022-09-21T16:41:21.526Z,58.89
2022-09-21T16:43:51.127Z,59.19
2022-09-21T16:46:19.058Z,59.04
2022-09-21T16:48:45.815Z,59.01
2022-09-21T16:51:14.615Z,59.26
2022-09-21T16:53:41.604Z,59.21
2022-09-21T16:56:14.667Z,59.31
2022-09-21T16:58:43.737Z,59.62
2022-09-21T17:01:15.860Z,59.63
2022-09-21T17:03:42.806Z,59.58
2022-09-21T17:06:18.027Z,59.82
2022-09-21T17:08:48.308Z,60.02
2022-09-21T17:11:19.996Z,60.12
2022-09-21T17:13:50.806Z,60.12
2022-09-21T17:16:20.228Z,60.40
2022-09-21T17:18:48.616Z,60.68
2022-09-21T17:21:16.430Z,60.73
2022-09-21T17:23:43.283Z,60.53
2022-09-21T17:26:19.409Z,60.86
2022-09-21T17:28:46.401Z,60.75
2022-09-21T17:31:16.480Z,61.14
2022-09-21T17:33:43.703Z,61.34
2022-09-21T17:36:13.909Z,61.43
2022-09-21T17:38:42.461Z,61.40
2022-09-21T17:41:18.192Z,61.76
2022-09-21T17:43:56.530Z,61.68
2022-09-21T17:46:41.429Z,61.88
2022-09-21T17:49:10.586Z,62.07
2022-09-21T17:51:56.066Z,62.27
2022-09-21T17:54:25.556Z,62.31
2022-09-21T17:57:06.953Z,62.50
2022-09-21T17:59:35.775Z,62.64
2022-09-21T18:02:11.244Z,62.61
2022-09-21T18:04:38.869Z,62.80
2022-09-21T18:07:06.017Z,62.81
2022-09-21T18:09:33.058Z,62.97
2022-09-21T18:12:39.428Z,62.92
2022-09-21T18:15:19.442Z,62.83
2022-09-21T18:17:55.198Z,63.03
2022-09-21T18:20:39.481Z,63.14
2022-09-21T18:23:15.608Z,63.16
2022-09-21T18:25:50.439Z,63.27
2022-09-21T18:28:36.684Z,63.46
2022-09-21T18:31:33.647Z,63.58
2022-09-21T18:34:13.262Z,63.70
2022-09-21T18:36:51.532Z,63.82
2022-09-21T18:39:18.299Z,63.84
2022-09-21T18:41:55.881Z,64.08
2022-09-21T18:44:36.423Z,64.27
2022-09-21T18:47:20.354Z,64.49
2022-09-21T18:50:15.367Z,64.80
2022-09-21T18:52:47.320Z,64.86
2022-09-21T18:55:33.402Z,65.02
2022-09-21T18:58:01.148Z,64.81
2022-09-21T19:00:32.473Z,65.20
2022-09-21T19:03:16.370Z,65.37
2022-09-21T19:05:56.909Z,65.58
2022-09-21T19:08:33.249Z,65.84
2022-09-21T19:11:15.037Z,65.83
2022-09-21T19:13:44.498Z,66.04
2022-09-21T19:16:17.519Z,66.30
2022-09-21T19:18:55.767Z,66.51
2022-09-21T19:21:54.859Z,66.50
2022-09-21T19:24:32.001Z,66.66
2022-09-21T19:27:07.795Z,66.83
2022-09-21T19:29:47.129Z,66.79
2022-09-21T19:32:17.140Z,67.05
2022-09-21T19:34:44.417Z,67.06
2022-09-21T19:37:11.540Z,67.32
2022-09-21T19:39:38.709Z,67.38
2022-09-21T19:42:11.565Z,67.44
2022-09-21T19:44:38.740Z,67.69
2022-09-21T19:47:25.852Z,67.61
2022-09-21T19:49:54.649Z,67.83
2022-09-21T19:52:34.725Z,68.09
2022-09-21T19:55:20.885Z,67.97
2022-09-21T19:58:06.484Z,68.01
2022-09-21T20:00:33.474Z,68.19
2022-09-21T20:03:11.143Z,68.30
2022-09-21T20:05:59.636Z,68.34
2022-09-21T20:08:30.383Z,68.31
2022-09-21T20:11:05.668Z,68.59
2022-09-21T20:13:38.148Z,68.61
2022-09-21T20:16:36.658Z,68.89
2022-09-21T20:19:15.127Z,68.91
2022-09-21T20:21:43.805Z,69.07
2022-09-21T20:24:31.816Z,69.19
2022-09-21T20:26:58.953Z,69.18
2022-09-21T20:29:25.713Z,69.36
2022-09-21T20:31:53.064Z,69.45
2022-09-21T20:34:20.266Z,69.49
2022-09-21T20:36:47.042Z,69.49
2022-09-21T20:39:13.744Z,69.50
2022-09-21T20:41:41.447Z,69.65
2022-09-21T20:44:12.362Z,69.79
2022-09-21T20:46:39.231Z,69.77
2022-09-21T20:49:08.228Z,69.82
2022-09-21T20:51:36.137Z,69.80
2022-09-21T20:54:03.968Z,69.90
2022-09-21T20:56:31.553Z,70.01
2022-09-21T20:58:59.310Z,70.08
2022-09-21T21:01:27.061Z,69.98
2022-09-21T21:04:01.738Z,70.09
2022-09-21T21:06:31.294Z,70.15
2022-09-21T21:08:58.533Z,70.05
2022-09-21T21:11:28.143Z,70.08
2022-09-21T21:13:56.174Z,69.99
2022-09-21T21:16:23.214Z,70.02
2022-09-21T21:18:50.260Z,70.11
2022-09-21T21:21:16.971Z,70.04
2022-09-21T21:24:02.244Z,70.03
2022-09-21T21:26:44.198Z,70.05
2022-09-21T21:29:15.576Z,70.03
2022-09-21T21:31:42.396Z,70.01
2022-09-21T21:34:09.253Z,69.95
2022-09-21T21:36:35.965Z,70.05
2022-09-21T21:39:03.809Z,70.09
2022-09-21T21:41:31.561Z,70.16
2022-09-21T21:43:59.189Z,70.08
2022-09-21T21:46:26.193Z,70.35
2022-09-21T21:48:57.107Z,70.33
2022-09-21T21:51:23.829Z,70.40
2022-09-21T21:53:50.798Z,70.53
2022-09-21T21:56:20.165Z,70.58
2022-09-21T21:58:46.854Z,70.55
2022-09-21T22:01:19.303Z,70.72
2022-09-21T22:03:46.285Z,70.77
2022-09-21T22:06:13.055Z,70.73
2022-09-21T22:08:40.825Z,70.69
2022-09-21T22:11:07.801Z,70.80
2022-09-21T22:13:39.190Z,70.96
2022-09-21T22:16:12.099Z,70.94
2022-09-21T22:18:39.922Z,71.03
2022-09-21T22:21:09.294Z,71.21
2022-09-21T22:23:36.618Z,71.18
2022-09-21T22:26:09.718Z,71.39
2022-09-21T22:28:37.078Z,71.42
2022-09-21T22:31:08.621Z,71.52
2022-09-21T22:33:35.488Z,71.63
2022-09-21T22:36:09.311Z,71.70
2022-09-21T22:38:41.970Z,71.97
2022-09-21T22:41:11.118Z,71.86
2022-09-21T22:43:38.445Z,71.92
2022-09-21T22:46:05.784Z,72.13
2022-09-21T22:48:33.098Z,71.71
2022-09-21T22:51:02.856Z,72.13
2022-09-21T22:53:30.021Z,72.11
2022-09-21T22:56:10.126Z,72.22
2022-09-21T22:58:49.367Z,72.17
2022-09-21T23:01:28.233Z,72.37
2022-09-21T23:03:59.464Z,72.24
2022-09-21T23:06:29.155Z,72.27
2022-09-21T23:08:57.601Z,72.55
2022-09-21T23:11:30.239Z,72.54
2022-09-21T23:13:58.342Z,72.55
2022-09-21T23:16:28.074Z,72.61
2022-09-21T23:18:55.973Z,72.71
2022-09-21T23:21:25.914Z,72.82
2022-09-21T23:24:00.112Z,72.82
2022-09-21T23:26:28.817Z,72.82
2022-09-21T23:29:10.090Z,72.87
2022-09-21T23:31:40.009Z,73.02
2022-09-21T23:34:13.468Z,73.17
2022-09-21T23:36:41.385Z,73.32
2022-09-21T23:39:11.726Z,73.36
2022-09-21T23:41:38.838Z,73.44
2022-09-21T23:44:06.084Z,73.52
2022-09-21T23:46:35.696Z,73.76
2022-09-21T23:49:02.913Z,73.74
2022-09-21T23:51:32.932Z,74.00
2022-09-21T23:54:00.116Z,74.18
2022-09-21T23:56:28.317Z,74.37
2022-09-21T23:58:55.081Z,74.51
